sensor_id;sensor_type;location;lat;lon;timestamp;pressure;altitude;pressure_sealevel;temperature;humidity
14885;BME280;7534;50.762;7.000;2023-02-20T05:17:29;88966.56;;;-143.16;83.56
14885;BME280;7534;50.762;7.000;2023-02-20T05:19:55;88980.69;;;-143.16;83.91
14885;BME280;7534;50.762;7.000;2023-02-20T05:22:21;89027.13;;;-143.16;83.89
14885;BME280;7534;50.762;7.000;2023-02-20T05:24:49;89045.31;;;-143.16;83.99
14885;BME280;7534;50.762;7.000;2023-02-20T05:27:20;88972.63;;;-143.16;84.40
14885;BME280;7534;50.762;7.000;2023-02-20T05:29:49;89035.22;;;-143.16;84.52
14885;BME280;7534;50.762;7.000;2023-02-20T05:32:18;89004.91;;;-143.16;84.79
14885;BME280;7534;50.762;7.000;2023-02-20T05:34:44;88972.63;;;-143.16;84.60
14885;BME280;7534;50.762;7.000;2023-02-20T05:37:12;89025.13;;;-143.16;84.47
14885;BME280;7534;50.762;7.000;2023-02-20T05:39:38;88952.41;;;-143.16;84.11
14885;BME280;7534;50.762;7.000;2023-02-20T05:42:05;89025.13;;;-143.16;84.37
14885;BME280;7534;50.762;7.000;2023-02-20T05:44:31;88944.34;;;-143.16;84.61
14885;BME280;7534;50.762;7.000;2023-02-20T05:46:57;88883.78;;;-143.16;84.47
14885;BME280;7534;50.762;7.000;2023-02-20T05:49:24;88934.25;;;-143.16;84.56
14885;BME280;7534;50.762;7.000;2023-02-20T05:51:50;88899.94;;;-143.16;84.78
14885;BME280;7534;50.762;7.000;2023-02-20T05:54:16;89017.03;;;-143.16;84.66
14885;BME280;7534;50.762;7.000;2023-02-20T05:56:44;88936.28;;;-143.16;84.54
14885;BME280;7534;50.762;7.000;2023-02-20T05:59:11;88922.13;;;-143.16;83.93
14885;BME280;7534;50.762;7.000;2023-02-20T06:01:37;89025.13;;;-143.16;83.75
14885;BME280;7534;50.762;7.000;2023-02-20T06:04:03;88972.63;;;-143.16;83.29
14885;BME280;7534;50.762;7.000;2023-02-20T06:06:38;89008.97;;;-143.16;83.21
14885;BME280;7534;50.762;7.000;2023-02-20T06:09:08;88962.53;;;-143.16;82.36
14885;BME280;7534;50.762;7.000;2023-02-20T06:11:38;88962.53;;;-143.16;82.59
14885;BME280;7534;50.762;7.000;2023-02-20T06:14:06;89053.38;;;-143.16;82.49
14885;BME280;7534;50.762;7.000;2023-02-20T06:16:34;88954.44;;;-143.16;82.51
14885;BME280;7534;50.762;7.000;2023-02-20T06:19:00;88885.78;;;-143.16;82.07
14885;BME280;7534;50.762;7.000;2023-02-20T06:21:27;88829.25;;;-143.16;82.09
14885;BME280;7534;50.762;7.000;2023-02-20T06:23:54;88984.72;;;-143.16;82.28
14885;BME280;7534;50.762;7.000;2023-02-20T06:26:25;88976.66;;;-143.16;82.60
14885;BME280;7534;50.762;7.000;2023-02-20T06:28:51;88968.56;;;-143.16;83.09
14885;BME280;7534;50.762;7.000;2023-02-20T06:31:27;89017.03;;;-143.16;83.59
14885;BME280;7534;50.762;7.000;2023-02-20T06:33:53;88952.41;;;-143.16;83.42
14885;BME280;7534;50.762;7.000;2023-02-20T06:36:29;89031.16;;;-143.16;83.75
14885;BME280;7534;50.762;7.000;2023-02-20T06:38:57;88988.75;;;-143.16;83.50
14885;BME280;7534;50.762;7.000;2023-02-20T06:41:22;88903.97;;;-143.16;84.36
14885;BME280;7534;50.762;7.000;2023-02-20T06:43:48;89031.16;;;-143.16;84.20
14885;BME280;7534;50.762;7.000;2023-02-20T06:46:14;88899.94;;;-143.16;84.32
14885;BME280;7534;50.762;7.000;2023-02-20T06:48:46;89021.06;;;-143.16;84.23
14885;BME280;7534;50.762;7.000;2023-02-20T06:51:18;88968.56;;;-143.16;84.08
14885;BME280;7534;50.762;7.000;2023-02-20T06:53:44;89184.63;;;-143.16;83.70
14885;BME280;7534;50.762;7.000;2023-02-20T06:56:14;88934.25;;;-143.16;83.95
14885;BME280;7534;50.762;7.000;2023-02-20T06:58:45;88794.94;;;-143.16;83.58
14885;BME280;7534;50.762;7.000;2023-02-20T07:01:10;88905.97;;;-143.16;83.61
14885;BME280;7534;50.762;7.000;2023-02-20T07:03:36;88916.09;;;-143.16;83.78
14885;BME280;7534;50.762;7.000;2023-02-20T07:06:02;88863.59;;;-143.16;83.97
14885;BME280;7534;50.762;7.000;2023-02-20T07:08:27;88843.41;;;-143.16;83.73
14885;BME280;7534;50.762;7.000;2023-02-20T07:10:53;88897.91;;;-143.16;83.09
14885;BME280;7534;50.762;7.000;2023-02-20T07:13:21;88770.72;;;-143.16;82.77
14885;BME280;7534;50.762;7.000;2023-02-20T07:15:48;88819.16;;;-143.16;82.78
14885;BME280;7534;50.762;7.000;2023-02-20T07:18:15;88903.97;;;-143.16;82.36
14885;BME280;7534;50.762;7.000;2023-02-20T07:20:42;88788.88;;;-143.16;81.79
14885;BME280;7534;50.762;7.000;2023-02-20T07:23:08;88803.00;;;-143.16;80.98
14885;BME280;7534;50.762;7.000;2023-02-20T07:25:34;88742.44;;;-143.16;81.15
14885;BME280;7534;50.762;7.000;2023-02-20T07:28:00;88704.09;;;-143.16;82.24
14885;BME280;7534;50.762;7.000;2023-02-20T07:30:26;88669.75;;;-143.16;82.11
14885;BME280;7534;50.762;7.000;2023-02-20T07:32:51;88687.94;;;-143.16;77.63
14885;BME280;7534;50.762;7.000;2023-02-20T07:35:17;88599.09;;;-143.16;76.13
14885;BME280;7534;50.762;7.000;2023-02-20T07:37:43;88459.78;;;-143.16;76.54
14885;BME280;7534;50.762;7.000;2023-02-20T07:40:09;88508.25;;;-143.16;75.42
14885;BME280;7534;50.762;7.000;2023-02-20T07:42:34;88455.75;;;-143.16;72.44
14885;BME280;7534;50.762;7.000;2023-02-20T07:45:00;88681.88;;;-143.16;71.09
14885;BME280;7534;50.762;7.000;2023-02-20T07:47:26;88477.97;;;-143.16;70.47
14885;BME280;7534;50.762;7.000;2023-02-20T07:49:51;88613.22;;;-143.16;70.06
14885;BME280;7534;50.762;7.000;2023-02-20T07:52:17;88399.22;;;-143.16;69.14
14885;BME280;7534;50.762;7.000;2023-02-20T07:54:42;88336.66;;;-143.16;65.97
14885;BME280;7534;50.762;7.000;2023-02-20T07:57:08;88225.63;;;-143.16;61.98
14885;BME280;7534;50.762;7.000;2023-02-20T07:59:34;88130.75;;;-143.16;57.53
14885;BME280;7534;50.762;7.000;2023-02-20T08:02:00;88161.03;;;-143.16;55.57
14885;BME280;7534;50.762;7.000;2023-02-20T08:04:25;88068.16;;;-143.16;52.65
14885;BME280;7534;50.762;7.000;2023-02-20T08:06:54;88005.59;;;-143.16;50.81
14885;BME280;7534;50.762;7.000;2023-02-20T08:09:20;88031.84;;;-143.16;49.95
14885;BME280;7534;50.762;7.000;2023-02-20T08:11:46;88050.00;;;-143.16;49.59
14885;BME280;7534;50.762;7.000;2023-02-20T08:14:13;88029.81;;;-143.16;48.80
14885;BME280;7534;50.762;7.000;2023-02-20T08:16:43;88076.25;;;-143.16;47.67
14885;BME280;7534;50.762;7.000;2023-02-20T08:19:11;87840.06;;;-143.16;47.13
14885;BME280;7534;50.762;7.000;2023-02-20T08:21:37;87696.75;;;-143.16;45.08
14885;BME280;7534;50.762;7.000;2023-02-20T08:24:03;87892.56;;;-143.16;43.09
14885;BME280;7534;50.762;7.000;2023-02-20T08:26:28;87731.06;;;-143.16;41.92
14885;BME280;7534;50.762;7.000;2023-02-20T08:28:54;87517.13;;;-143.16;41.64
14885;BME280;7534;50.762;7.000;2023-02-20T08:31:21;87616.03;;;-143.16;40.99
14885;BME280;7534;50.762;7.000;2023-02-20T08:33:56;87785.56;;;-143.16;40.75
14885;BME280;7534;50.762;7.000;2023-02-20T08:36:22;87595.84;;;-143.16;40.27
14885;BME280;7534;50.762;7.000;2023-02-20T08:38:47;87545.38;;;-143.16;40.74
14885;BME280;7534;50.762;7.000;2023-02-20T08:41:13;87599.88;;;-143.16;41.48
14885;BME280;7534;50.762;7.000;2023-02-20T08:43:42;87793.66;;;-143.16;41.58
14885;BME280;7534;50.762;7.000;2023-02-20T08:46:08;87751.25;;;-143.16;41.63
14885;BME280;7534;50.762;7.000;2023-02-20T08:48:37;87636.22;;;-143.16;42.17
14885;BME280;7534;50.762;7.000;2023-02-20T08:51:05;87834.03;;;-143.16;42.81
14885;BME280;7534;50.762;7.000;2023-02-20T08:53:32;87801.72;;;-143.16;42.97
14885;BME280;7534;50.762;7.000;2023-02-20T08:56:00;87781.53;;;-143.16;42.82
14885;BME280;7534;50.762;7.000;2023-02-20T08:58:26;87733.09;;;-143.16;42.01
14885;BME280;7534;50.762;7.000;2023-02-20T09:00:52;87678.59;;;-143.16;40.92
14885;BME280;7534;50.762;7.000;2023-02-20T09:03:20;87519.16;;;-143.16;40.49
14885;BME280;7534;50.762;7.000;2023-02-20T09:05:52;87716.94;;;-143.16;40.81
14885;BME280;7534;50.762;7.000;2023-02-20T09:08:22;87801.72;;;-143.16;41.53
14885;BME280;7534;50.762;7.000;2023-02-20T09:10:48;87860.25;;;-143.16;42.61
14885;BME280;7534;50.762;7.000;2023-02-20T09:13:14;87854.19;;;-143.16;43.52
14885;BME280;7534;50.762;7.000;2023-02-20T09:15:40;87888.50;;;-143.16;43.22
14885;BME280;7534;50.762;7.000;2023-02-20T09:18:11;87769.44;;;-143.16;42.53
14885;BME280;7534;50.762;7.000;2023-02-20T09:20:38;87450.53;;;-143.16;39.60
14885;BME280;7534;50.762;7.000;2023-02-20T09:23:09;87246.69;;;-143.16;37.37
14885;BME280;7534;50.762;7.000;2023-02-20T09:25:35;87206.34;;;-143.16;36.06
14885;BME280;7534;50.762;7.000;2023-02-20T09:28:01;87042.88;;;-143.16;34.90
14885;BME280;7534;50.762;7.000;2023-02-20T09:30:28;86859.25;;;-143.16;33.42
14885;BME280;7534;50.762;7.000;2023-02-20T09:32:54;86800.72;;;-143.16;31.82
14885;BME280;7534;50.762;7.000;2023-02-20T09:35:27;86720.00;;;-143.16;31.27
14885;BME280;7534;50.762;7.000;2023-02-20T09:37:54;86542.44;;;-143.16;30.59
14885;BME280;7534;50.762;7.000;2023-02-20T09:40:26;86437.53;;;-143.16;29.35
14885;BME280;7534;50.762;7.000;2023-02-20T09:46:24;86366.91;;;-143.16;28.96
14885;BME280;7534;50.762;7.000;2023-02-20T09:51:33;86284.19;;;-143.16;27.89
14885;BME280;7534;50.762;7.000;2023-02-20T09:56:43;86268.03;;;-143.16;27.32
14885;BME280;7534;50.762;7.000;2023-02-20T09:59:31;86134.91;;;-143.16;27.09
14885;BME280;7534;50.762;7.000;2023-02-20T10:02:19;86467.78;;;-143.16;28.41
14885;BME280;7534;50.762;7.000;2023-02-20T10:04:50;86746.25;;;-143.16;29.84
14885;BME280;7534;50.762;7.000;2023-02-20T10:07:26;86841.06;;;-143.16;30.96
14885;BME280;7534;50.762;7.000;2023-02-20T10:09:53;86881.44;;;-143.16;31.19
14885;BME280;7534;50.762;7.000;2023-02-20T10:12:42;86770.44;;;-143.16;32.21
14885;BME280;7534;50.762;7.000;2023-02-20T10:15:24;87059.00;;;-143.16;32.87
14885;BME280;7534;50.762;7.000;2023-02-20T10:18:19;87137.72;;;-143.16;33.80
14885;BME280;7534;50.762;7.000;2023-02-20T10:21:00;87412.19;;;-143.16;35.92
14885;BME280;7534;50.762;7.000;2023-02-20T10:26:29;87575.66;;;-143.16;38.81
14885;BME280;7534;50.762;7.000;2023-02-20T10:29:14;87755.31;;;-143.16;41.39
14885;BME280;7534;50.762;7.000;2023-02-20T10:31:51;87799.69;;;-143.16;42.81
14885;BME280;7534;50.762;7.000;2023-02-20T10:34:28;87832.00;;;-143.16;43.53
14885;BME280;7534;50.762;7.000;2023-02-20T10:37:07;87951.09;;;-143.16;44.82
14885;BME280;7534;50.762;7.000;2023-02-20T10:39:37;87934.94;;;-143.16;46.20
14885;BME280;7534;50.762;7.000;2023-02-20T10:42:28;87829.97;;;-143.16;47.11
14885;BME280;7534;50.762;7.000;2023-02-20T10:45:09;88007.59;;;-143.16;47.35
14885;BME280;7534;50.762;7.000;2023-02-20T10:47:52;88019.72;;;-143.16;47.98
14885;BME280;7534;50.762;7.000;2023-02-20T10:50:28;88015.69;;;-143.16;48.72
14885;BME280;7534;50.762;7.000;2023-02-20T10:56:00;88041.94;;;-143.16;49.24
14885;BME280;7534;50.762;7.000;2023-02-20T11:01:16;88148.91;;;-143.16;50.47
14885;BME280;7534;50.762;7.000;2023-02-20T11:03:53;88110.56;;;-143.16;50.77
14885;BME280;7534;50.762;7.000;2023-02-20T11:06:35;88108.53;;;-143.16;50.56
14885;BME280;7534;50.762;7.000;2023-02-20T11:09:03;87896.59;;;-143.16;50.23
14885;BME280;7534;50.762;7.000;2023-02-20T11:11:38;87910.72;;;-143.16;49.63
14885;BME280;7534;50.762;7.000;2023-02-20T11:14:40;87999.53;;;-143.16;48.93
14885;BME280;7534;50.762;7.000;2023-02-20T11:17:11;87906.69;;;-143.16;48.99
14885;BME280;7534;50.762;7.000;2023-02-20T11:19:51;87811.81;;;-143.16;48.93
14885;BME280;7534;50.762;7.000;2023-02-20T11:25:28;87821.91;;;-143.16;48.96
14885;BME280;7534;50.762;7.000;2023-02-20T11:28:09;88322.53;;;-143.16;48.41
14885;BME280;7534;50.762;7.000;2023-02-20T11:30:45;87932.91;;;-143.16;48.81
14885;BME280;7534;50.762;7.000;2023-02-20T11:33:21;87904.66;;;-143.16;49.22
14885;BME280;7534;50.762;7.000;2023-02-20T11:35:56;88003.56;;;-143.16;49.00
14885;BME280;7534;50.762;7.000;2023-02-20T11:38:27;88104.50;;;-143.16;49.20
14885;BME280;7534;50.762;7.000;2023-02-20T11:43:32;87971.28;;;-143.16;49.11
14885;BME280;7534;50.762;7.000;2023-02-20T11:46:22;87993.47;;;-143.16;49.86
14885;BME280;7534;50.762;7.000;2023-02-20T11:49:11;87969.25;;;-143.16;49.11
14885;BME280;7534;50.762;7.000;2023-02-20T11:51:49;87874.38;;;-143.16;48.94
14885;BME280;7534;50.762;7.000;2023-02-20T11:54:26;87906.69;;;-143.16;48.94
14885;BME280;7534;50.762;7.000;2023-02-20T11:57:05;87930.91;;;-143.16;48.05
14885;BME280;7534;50.762;7.000;2023-02-20T11:59:47;87904.66;;;-143.16;48.47
14885;BME280;7534;50.762;7.000;2023-02-20T12:05:09;87640.25;;;-143.16;48.42
14885;BME280;7534;50.762;7.000;2023-02-20T12:07:56;87809.78;;;-143.16;48.53
14885;BME280;7534;50.762;7.000;2023-02-20T12:10:52;87836.03;;;-143.16;48.08
14885;BME280;7534;50.762;7.000;2023-02-20T12:13:21;87789.63;;;-143.16;48.59
14885;BME280;7534;50.762;7.000;2023-02-20T12:33:45;87951.09;;;-143.16;48.86
14885;BME280;7534;50.762;7.000;2023-02-20T12:36:28;87896.59;;;-143.16;48.76
14885;BME280;7534;50.762;7.000;2023-02-20T12:39:06;87886.50;;;-143.16;49.49
14885;BME280;7534;50.762;7.000;2023-02-20T12:44:40;87878.41;;;-143.16;49.90
14885;BME280;7534;50.762;7.000;2023-02-20T12:47:45;87872.38;;;-143.16;50.02
14885;BME280;7534;50.762;7.000;2023-02-20T12:53:51;87854.19;;;-143.16;49.57
14885;BME280;7534;50.762;7.000;2023-02-20T12:56:41;87751.25;;;-143.16;49.00
14885;BME280;7534;50.762;7.000;2023-02-20T12:59:27;87716.94;;;-143.16;48.92
14885;BME280;7534;50.762;7.000;2023-02-20T13:02:17;87704.84;;;-143.16;48.55
14885;BME280;7534;50.762;7.000;2023-02-20T13:04:52;87777.50;;;-143.16;49.07
14885;BME280;7534;50.762;7.000;2023-02-20T13:10:24;87811.81;;;-143.16;49.09
14885;BME280;7534;50.762;7.000;2023-02-20T13:12:52;87777.50;;;-143.16;49.28
14885;BME280;7534;50.762;7.000;2023-02-20T13:15:35;87846.13;;;-143.16;49.22
14885;BME280;7534;50.762;7.000;2023-02-20T13:21:02;88047.97;;;-143.16;48.61
14885;BME280;7534;50.762;7.000;2023-02-20T13:23:36;87809.78;;;-143.16;48.81
14885;BME280;7534;50.762;7.000;2023-02-20T13:29:27;87765.38;;;-143.16;48.10
14885;BME280;7534;50.762;7.000;2023-02-20T13:34:44;87874.38;;;-143.16;49.47
14885;BME280;7534;50.762;7.000;2023-02-20T13:45:45;87821.91;;;-143.16;49.91
14885;BME280;7534;50.762;7.000;2023-02-20T13:48:40;87821.91;;;-143.16;50.16
14885;BME280;7534;50.762;7.000;2023-02-20T13:53:50;87823.91;;;-143.16;50.50
14885;BME280;7534;50.762;7.000;2023-02-20T13:58:46;87838.06;;;-143.16;50.60
14885;BME280;7534;50.762;7.000;2023-02-20T14:01:13;87811.81;;;-143.16;50.69
14885;BME280;7534;50.762;7.000;2023-02-20T14:03:40;87827.97;;;-143.16;51.06
14885;BME280;7534;50.762;7.000;2023-02-20T14:08:39;87860.25;;;-143.16;50.83
14885;BME280;7534;50.762;7.000;2023-02-20T14:11:24;87858.25;;;-143.16;51.69
14885;BME280;7534;50.762;7.000;2023-02-20T14:13:52;87684.66;;;-143.16;51.48
14885;BME280;7534;50.762;7.000;2023-02-20T14:16:31;87858.25;;;-143.16;51.38
14885;BME280;7534;50.762;7.000;2023-02-20T14:19:00;87862.28;;;-143.16;51.58
14885;BME280;7534;50.762;7.000;2023-02-20T14:21:27;87825.94;;;-143.16;51.77
14885;BME280;7534;50.762;7.000;2023-02-20T14:23:54;87838.06;;;-143.16;51.82
14885;BME280;7534;50.762;7.000;2023-02-20T14:26:25;87878.41;;;-143.16;52.20
14885;BME280;7534;50.762;7.000;2023-02-20T14:28:54;87866.31;;;-143.16;52.38
14885;BME280;7534;50.762;7.000;2023-02-20T14:31:39;87850.16;;;-143.16;52.51
14885;BME280;7534;50.762;7.000;2023-02-20T14:34:18;87567.59;;;-143.16;52.36
14885;BME280;7534;50.762;7.000;2023-02-20T14:37:23;87829.97;;;-143.16;51.90
14885;BME280;7534;50.762;7.000;2023-02-20T14:40:18;87864.28;;;-143.16;51.97
14885;BME280;7534;50.762;7.000;2023-02-20T14:42:47;87856.22;;;-143.16;53.13
14885;BME280;7534;50.762;7.000;2023-02-20T14:45:24;87862.28;;;-143.16;53.24
14885;BME280;7534;50.762;7.000;2023-02-20T14:47:56;87759.34;;;-143.16;53.51
14885;BME280;7534;50.762;7.000;2023-02-20T14:53:18;87829.97;;;-143.16;52.53
14885;BME280;7534;50.762;7.000;2023-02-20T14:55:48;87880.44;;;-143.16;53.29
14885;BME280;7534;50.762;7.000;2023-02-20T14:58:19;87743.19;;;-143.16;52.85
14885;BME280;7534;50.762;7.000;2023-02-20T15:00:48;87829.97;;;-143.16;53.31
14885;BME280;7534;50.762;7.000;2023-02-20T15:03:28;87993.47;;;-143.16;53.07
14885;BME280;7534;50.762;7.000;2023-02-20T15:06:01;87870.34;;;-143.16;52.83
14885;BME280;7534;50.762;7.000;2023-02-20T15:08:35;87864.28;;;-143.16;52.90
14885;BME280;7534;50.762;7.000;2023-02-20T15:11:13;87846.13;;;-143.16;52.44
14885;BME280;7534;50.762;7.000;2023-02-20T15:13:45;87716.94;;;-143.16;51.30
14885;BME280;7534;50.762;7.000;2023-02-20T15:16:24;87815.84;;;-143.16;51.55
14885;BME280;7534;50.762;7.000;2023-02-20T15:18:51;87821.91;;;-143.16;51.90
14885;BME280;7534;50.762;7.000;2023-02-20T15:21:40;87801.72;;;-143.16;51.79
14885;BME280;7534;50.762;7.000;2023-02-20T15:26:50;87759.34;;;-143.16;52.29
14885;BME280;7534;50.762;7.000;2023-02-20T15:29:27;87676.59;;;-143.16;52.58
14885;BME280;7534;50.762;7.000;2023-02-20T15:31:57;87876.41;;;-143.16;52.41
14885;BME280;7534;50.762;7.000;2023-02-20T15:34:34;87797.69;;;-143.16;52.63
14885;BME280;7534;50.762;7.000;2023-02-20T15:37:16;87876.41;;;-143.16;52.72
14885;BME280;7534;50.762;7.000;2023-02-20T15:39:43;87878.41;;;-143.16;53.35
14885;BME280;7534;50.762;7.000;2023-02-20T15:42:12;87805.75;;;-143.16;53.62
14885;BME280;7534;50.762;7.000;2023-02-20T15:44:38;88031.84;;;-143.16;53.87
14885;BME280;7534;50.762;7.000;2023-02-20T15:47:04;87880.44;;;-143.16;54.22
14885;BME280;7534;50.762;7.000;2023-02-20T15:49:32;87846.13;;;-143.16;54.41
14885;BME280;7534;50.762;7.000;2023-02-20T15:52:00;87890.53;;;-143.16;55.00
14885;BME280;7534;50.762;7.000;2023-02-20T15:54:27;87886.50;;;-143.16;54.98
14885;BME280;7534;50.762;7.000;2023-02-20T15:56:53;87947.06;;;-143.16;55.25
14885;BME280;7534;50.762;7.000;2023-02-20T15:59:19;88108.53;;;-143.16;55.52
14885;BME280;7534;50.762;7.000;2023-02-20T16:01:45;87827.97;;;-143.16;56.02
14885;BME280;7534;50.762;7.000;2023-02-20T16:04:15;88094.41;;;-143.16;56.30
14885;BME280;7534;50.762;7.000;2023-02-20T16:06:43;88231.69;;;-143.16;56.61
14885;BME280;7534;50.762;7.000;2023-02-20T16:09:10;87890.53;;;-143.16;57.32
14885;BME280;7534;50.762;7.000;2023-02-20T16:11:40;88003.56;;;-143.16;57.82
14885;BME280;7534;50.762;7.000;2023-02-20T16:14:08;88021.75;;;-143.16;58.03
14885;BME280;7534;50.762;7.000;2023-02-20T16:16:41;88060.09;;;-143.16;58.61
14885;BME280;7534;50.762;7.000;2023-02-20T16:19:19;88043.94;;;-143.16;59.12
14885;BME280;7534;50.762;7.000;2023-02-20T16:21:46;88181.22;;;-143.16;59.61
14885;BME280;7534;50.762;7.000;2023-02-20T16:24:13;88177.16;;;-143.16;59.92
14885;BME280;7534;50.762;7.000;2023-02-20T16:26:45;88116.63;;;-143.16;60.39
14885;BME280;7534;50.762;7.000;2023-02-20T16:29:24;88173.13;;;-143.16;60.89
14885;BME280;7534;50.762;7.000;2023-02-20T16:34:22;88023.75;;;-143.16;61.89
14885;BME280;7534;50.762;7.000;2023-02-20T16:36:50;88239.75;;;-143.16;62.28
14885;BME280;7534;50.762;7.000;2023-02-20T16:39:18;88078.25;;;-143.16;62.80
14885;BME280;7534;50.762;7.000;2023-02-20T16:41:44;88084.31;;;-143.16;63.06
14885;BME280;7534;50.762;7.000;2023-02-20T16:44:27;88288.19;;;-143.16;63.69
14885;BME280;7534;50.762;7.000;2023-02-20T16:47:11;88253.88;;;-143.16;64.24
14885;BME280;7534;50.762;7.000;2023-02-20T16:49:37;88266.00;;;-143.16;64.25
14885;BME280;7534;50.762;7.000;2023-02-20T16:52:31;88415.38;;;-143.16;64.50
14885;BME280;7534;50.762;7.000;2023-02-20T16:54:58;88286.19;;;-143.16;64.91
14885;BME280;7534;50.762;7.000;2023-02-20T16:57:24;88245.81;;;-143.16;65.43
14885;BME280;7534;50.762;7.000;2023-02-20T16:59:53;88419.41;;;-143.16;66.11
14885;BME280;7534;50.762;7.000;2023-02-20T17:02:29;88142.84;;;-143.16;66.09
14885;BME280;7534;50.762;7.000;2023-02-20T17:04:57;88389.13;;;-143.16;66.51
14885;BME280;7534;50.762;7.000;2023-02-20T17:07:23;88419.41;;;-143.16;66.69
14885;BME280;7534;50.762;7.000;2023-02-20T17:09:50;88288.19;;;-143.16;67.29
14885;BME280;7534;50.762;7.000;2023-02-20T17:12:20;88134.78;;;-143.16;68.10
14885;BME280;7534;50.762;7.000;2023-02-20T17:14:47;88199.38;;;-143.16;68.24
14885;BME280;7534;50.762;7.000;2023-02-20T17:17:14;88346.75;;;-143.16;68.25
14885;BME280;7534;50.762;7.000;2023-02-20T17:19:42;88268.00;;;-143.16;68.62
14885;BME280;7534;50.762;7.000;2023-02-20T17:22:12;88233.69;;;-143.16;69.04
14885;BME280;7534;50.762;7.000;2023-02-20T17:24:40;88694.00;;;-143.16;70.09
14885;BME280;7534;50.762;7.000;2023-02-20T17:27:09;88463.84;;;-143.16;70.29
14885;BME280;7534;50.762;7.000;2023-02-20T17:29:36;88479.97;;;-143.16;70.83
14885;BME280;7534;50.762;7.000;2023-02-20T17:32:02;88296.28;;;-143.16;71.06
14885;BME280;7534;50.762;7.000;2023-02-20T17:34:29;88492.09;;;-143.16;71.16
14885;BME280;7534;50.762;7.000;2023-02-20T17:36:55;88471.91;;;-143.16;71.29
14885;BME280;7534;50.762;7.000;2023-02-20T17:39:23;88486.03;;;-143.16;71.31
